Date,TemperatureHighF,TemperatureAvgF,TemperatureLowF,DewpointHighF,DewpointAvgF,DewpointLowF,HumidityHigh,HumidityAvg,HumidityLow,PressureMaxIn,PressureMinIn,WindSpeedMaxMPH,WindSpeedAvgMPH,GustSpeedMaxMPH,PrecipitationSumIn
2013-3-1,50,40,34,-100,-100,-100,0,0,100,0.00,40.00,0,-999,0,0.00
2013-3-2,47,39,35,-100,-100,-100,0,0,100,0.00,40.00,0,-999,0,0.00
2013-3-3,36,32,25,-100,-100,-100,0,0,100,0.00,40.00,0,-999,0,0.00
2013-3-4,30,21,14,-100,-100,-100,0,0,100,0.00,40.00,0,-999,0,0.00
2013-3-5,32,21,8,-100,-100,-100,0,0,100,0.00,40.00,0,-999,0,0.00
2013-3-6,40,29,23,-100,-100,-100,0,0,100,0.00,40.00,0,-999,0,0.00
2013-3-7,40,29,22,-100,-100,-100,0,0,100,0.00,40.00,0,-999,0,0.00
2013-3-8,41,26,16,-100,-100,-100,0,0,100,0.00,40.00,0,-999,0,0.00
2013-3-9,42,28,18,-100,-100,-100,0,0,100,0.00,40.00,0,-999,0,0.00
2013-3-10,46,33,20,-100,-100,-100,0,0,100,0.00,40.00,0,-999,0,0.00
2013-3-11,45,34,27,-100,-100,-100,0,0,100,0.00,40.00,0,-999,0,0.00
2013-3-12,47,35,24,-100,-100,-100,0,0,100,0.00,40.00,0,-999,0,0.00
2013-3-13,54,45,36,-100,-100,-100,0,0,100,0.00,40.00,0,-999,0,0.00
2013-3-14,58,44,31,-100,-100,-100,0,0,100,0.00,40.00,0,-999,0,0.00
2013-3-15,52,42,34,-100,-100,-100,0,0,100,0.00,40.00,0,-999,0,0.00
2013-3-16,47,38,31,-100,-100,-100,0,0,100,0.00,40.00,0,-999,0,0.00
2013-3-17,35,29,24,-100,-100,-100,0,0,100,0.00,40.00,0,-999,0,0.00
2013-3-18,35,26,20,-100,-100,-100,0,0,100,0.00,40.00,0,-999,0,0.00
2013-3-19,39,27,16,-100,-100,-100,0,0,100,0.00,40.00,0,-999,0,0.00
2013-3-20,50,35,24,-100,-100,-100,0,0,100,0.00,40.00,0,-999,0,0.00
2013-3-21,33,28,23,-100,-100,-100,0,0,100,0.00,40.00,0,-999,0,0.00
2013-3-22,30,22,15,-100,-100,-100,0,0,100,0.00,40.00,0,-999,0,0.00
2013-3-23,29,20,12,-100,-100,-100,0,0,100,0.00,40.00,0,-999,0,0.00
2013-3-24,35,22,11,-100,-100,-100,0,0,100,0.00,40.00,0,-999,0,0.00
2013-3-25,41,26,13,-100,-100,-100,0,0,100,0.00,40.00,0,-999,0,0.00
2013-3-26,50,37,30,-100,-100,-100,0,0,100,0.00,40.00,0,-999,0,0.00
2013-3-27,50,36,25,-100,-100,-100,0,0,100,0.00,40.00,0,-999,0,0.00
2013-3-28,55,42,29,-100,-100,-100,0,0,100,0.00,40.00,0,-999,0,0.00
2013-3-29,46,40,34,-100,-100,-100,0,0,100,0.00,40.00,0,-999,0,0.00
2013-3-30,55,41,31,-100,-100,-100,0,0,100,0.00,40.00,0,-999,0,0.00
2013-3-31,58,40,26,-100,-100,-100,0,0,100,0.00,40.00,0,-999,0,0.00